Terminal Aerodrome Forecast
Issued by NWS Cleveland, OH

Home | Current Version | Previous Version | Graphics & Text | Print | Product List | Glossary On
Versions: 1 2 3 4 5 6 7 8 9 10 11 12 13 14 15 16 17 18 19 20
000
FTUS41 KCLE 300800 AAA
TAFTOL
TAF AMD
KTOL 300818Z 3008/3106 28012G16KT P6SM SCT035 OVC050
     FM301000 27010KT P6SM SCT050 BKN250
      TEMPO 3010/3014 BKN050
     FM301400 26015G25KT P6SM SCT250
     FM302100 26014G22KT P6SM SCT120 BKN250
     FM310200 24007KT P6SM OVC120=

USA.gov is the U.S. government's official web portal to all federal, state and local government web resources and services.